Zirfaea — PBZV — position and weather

sailwx.info

Track history (hours):
 
Tides and Currents Weather Stations Pressure Air Temp Water Temp Dewpoint Dewpoint Depression Visibility Wind Speed Wind Dir Waves Ship Positions

Oceanographic research ship Zirfaea (Netherlands)

Detailed information on ship capabilities available from University of Delaware's Ocean Information Center.

Last reported at 2018-Feb-23 13:59 UTC. Time now 2018-Feb-23 14:15 UTC.
Position N 52°06' E 004°16'.

Length 63 m; draft 3.9 m.

Type: Law enforcement. MMSI: 246096000.

Date/timePositionNaut miles runAvg speedWind from/ knotsBaromVisibWave heightAir tempDewpointWater temp
2018-Feb-23 13:59N 52°06' E 004°16'0 0.0
2018-Feb-23 13:29N 52°06' E 004°16'0 0.0
2018-Feb-23 12:59N 52°06' E 004°16'0 0.0
2018-Feb-23 12:29N 52°06' E 004°16'0 0.0
2018-Feb-23 11:56N 52°06' E 004°16'0 0.0
2018-Feb-23 11:29N 52°06' E 004°16'0 0.0
2018-Feb-23 10:59N 52°06' E 004°16'0 0.0
2018-Feb-23 10:29N 52°06' E 004°16'0 0.0
2018-Feb-23 09:59N 52°06' E 004°16'0 0.0
2018-Feb-23 09:29N 52°06' E 004°16'0 0.0
2018-Feb-23 08:59N 52°06' E 004°16'0 0.0
2018-Feb-23 08:29N 52°06' E 004°16'0 0.0
2018-Feb-23 07:59N 52°06' E 004°16'0 0.0
2018-Feb-23 07:29N 52°06' E 004°16'0 0.0
2018-Feb-23 06:59N 52°06' E 004°16'0 0.0
2018-Feb-23 06:29N 52°06' E 004°16'0 0.0
2018-Feb-23 05:59N 52°06' E 004°16'0 0.0
2018-Feb-23 05:29N 52°06' E 004°16'0 0.0
2018-Feb-23 04:59N 52°06' E 004°16'0 0.0
2018-Feb-23 04:29N 52°06' E 004°16'0 0.0
2018-Feb-23 03:59N 52°06' E 004°16'0 0.0
2018-Feb-23 03:26N 52°06' E 004°16'0 0.0
2018-Feb-23 02:59N 52°06' E 004°16'0 0.0
2018-Feb-23 02:29N 52°06' E 004°16'0 0.0
2018-Feb-23 01:59N 52°06' E 004°16'0 0.0
2018-Feb-23 01:29N 52°06' E 004°16'0 0.0
2018-Feb-23 00:59N 52°06' E 004°16'0 0.0
2018-Feb-23 00:29N 52°06' E 004°16'0 0.0
2018-Feb-22 23:59N 52°06' E 004°16'0 0.0
2018-Feb-22 23:29N 52°06' E 004°16'0 0.0
2018-Feb-22 22:59N 52°06' E 004°16'0 0.0
2018-Feb-22 22:29N 52°06' E 004°16'0 0.0
2018-Feb-22 21:59N 52°06' E 004°16'0 0.0
2018-Feb-22 21:29N 52°06' E 004°16'0 0.0
2018-Feb-22 20:56N 52°06' E 004°16'0 0.0
2018-Feb-22 20:26N 52°06' E 004°16'0 0.0
2018-Feb-22 19:59N 52°06' E 004°16'0 0.0
2018-Feb-22 19:29N 52°06' E 004°16'0 0.0
2018-Feb-22 18:59N 52°06' E 004°16'0 0.0
2018-Feb-22 18:29N 52°06' E 004°16'1 2.9
2018-Feb-22 18:00N 52°07' E 004°15'4 8.7
2018-Feb-22 17:30N 52°11' E 004°16'5 9.4
2018-Feb-22 17:00N 52°16' E 004°17'510.1
2018-Feb-22 16:30N 52°21' E 004°19'2 4.7
2018-Feb-22 16:01N 52°23' E 004°20'0 0.5
2018-Feb-22 15:31N 52°23' E 004°20'2 4.3
2018-Feb-22 15:00N 52°25' E 004°22'611.4
2018-Feb-22 14:30N 52°30' E 004°26'611.4
2018-Feb-22 14:00N 52°36' E 004°28'611.4
2018-Feb-22 13:30N 52°41' E 004°29'611.3
2018-Feb-22 13:00N 52°47' E 004°30'611.1
2018-Feb-22 12:30N 52°52' E 004°31'510.7
2018-Feb-22 12:00N 52°58' E 004°32'5 9.6
2018-Feb-22 11:28N 53°03' E 004°34'13 4.9
2018-Feb-22 08:55N 53°14' E 004°42'0 0.2
2018-Feb-22 08:02N 53°14' E 004°42'0 0.3
2018-Feb-22 06:49N 53°14' E 004°42'3 5.4
2018-Feb-22 06:11N 53°17' E 004°46'7 6.1
2018-Feb-22 05:07N 53°22' E 004°53'1 5.3
2018-Feb-22 04:58N 53°22' E 004°54'4 5.3
2018-Feb-22 04:09N 53°25' E 004°60'1 6.2
2018-Feb-22 03:58N 53°26' E 005°01'1 0.6
2018-Feb-22 02:25N 53°26' E 005°03'4 5.8
2018-Feb-22 01:42N 53°27' E 005°09'48 3.5
2018-Feb-21 12:01N 53°37' E 006°28'0 8.8
2018-Feb-21 12:00N 53°37' E 006°29'35 2.6
2018-Feb-20 22:46N 53°31' E 005°31'1 2.2
2018-Feb-20 22:29N 53°31' E 005°30'2 4.5
2018-Feb-20 21:59N 53°30' E 005°27'39 1.6
2018-Feb-19 21:22N 53°29' E 004°22'3 8.3
2018-Feb-19 21:00N 53°26' E 004°22'4 8.4
2018-Feb-19 20:30N 53°21' E 004°22'4 8.6
2018-Feb-19 20:00N 53°17' E 004°22'4 7.4
2018-Feb-19 19:28N 53°14' E 004°25'3 7.2
2018-Feb-19 19:00N 53°12' E 004°30'5 9.8
2018-Feb-19 18:31N 53°07' E 004°31'510.5
2018-Feb-19 18:00N 53°02' E 004°32'611.8
2018-Feb-19 17:30N 52°56' E 004°33'612.0
2018-Feb-19 17:00N 52°51' E 004°37'2 4.2
2018-Feb-19 16:29N 52°49' E 004°36'511.4
2018-Feb-19 16:00N 52°43' E 004°33'610.9
2018-Feb-19 15:30N 52°38' E 004°30'5 9.8
2018-Feb-19 15:00N 52°34' E 004°27'5 9.7
2018-Feb-19 14:30N 52°30' E 004°21'3 6.6
2018-Feb-19 14:00N 52°29' E 004°16'4 7.4
2018-Feb-19 13:30N 52°26' E 004°15'5 9.1
2018-Feb-19 13:00N 52°21' E 004°14'5 9.1
2018-Feb-19 12:30N 52°17' E 004°12'4 8.9
2018-Feb-19 12:00N 52°12' E 004°11'4 7.8
2018-Feb-19 11:30N 52°08' E 004°12'0 0.3
2018-Feb-19 11:01N 52°08' E 004°12'3 6.4
2018-Feb-19 10:30N 52°06' E 004°16'0 0.1
2018-Feb-19 10:00N 52°06' E 004°16'0 0.0
2018-Feb-19 09:30N 52°06' E 004°16'0 0.0
2018-Feb-19 09:00N 52°06' E 004°16'0 0.0
2018-Feb-19 08:30N 52°06' E 004°16'0 0.0
2018-Feb-19 08:00N 52°06' E 004°16'0 0.0
2018-Feb-19 07:30N 52°06' E 004°16'0 0.0
2018-Feb-19 07:00N 52°06' E 004°16'0 0.0
2018-Feb-19 06:30N 52°06' E 004°16'0 0.0
2018-Feb-19 06:00N 52°06' E 004°16'0 0.0
2018-Feb-19 05:30N 52°06' E 004°16'0 0.0
2018-Feb-19 05:00N 52°06' E 004°16'0 0.0
2018-Feb-19 04:30N 52°06' E 004°16'0 0.0
2018-Feb-19 04:00N 52°06' E 004°16'0 0.0
2018-Feb-19 03:27N 52°06' E 004°16'0 0.0
2018-Feb-19 03:00N 52°06' E 004°16'0 0.0
2018-Feb-19 02:30N 52°06' E 004°16'0 0.0
2018-Feb-19 02:00N 52°06' E 004°16'0 0.0
2018-Feb-19 01:30N 52°06' E 004°16'0 0.0
2018-Feb-19 01:00N 52°06' E 004°16'0 0.0
2018-Feb-19 00:30N 52°06' E 004°16'0 0.0
2018-Feb-19 00:00N 52°06' E 004°16'0 0.0
2018-Feb-18 23:30N 52°06' E 004°16'0 0.0
2018-Feb-18 23:00N 52°06' E 004°16'0 0.0
2018-Feb-18 22:30N 52°06' E 004°16'0 0.0
2018-Feb-18 22:00N 52°06' E 004°16'0 0.0
2018-Feb-18 21:30N 52°06' E 004°16'0 0.0
2018-Feb-18 21:00N 52°06' E 004°16'0 0.0
2018-Feb-18 20:30N 52°06' E 004°16'0 0.0
2018-Feb-18 20:00N 52°06' E 004°16'0 0.0
2018-Feb-18 19:30N 52°06' E 004°16'0 0.0
2018-Feb-18 19:00N 52°06' E 004°16'0 0.0
2018-Feb-18 18:30N 52°06' E 004°16'0 0.0
2018-Feb-18 18:00N 52°06' E 004°16'0 0.0
2018-Feb-18 17:30N 52°06' E 004°16'0 0.0
2018-Feb-18 17:00N 52°06' E 004°16'0 0.0
2018-Feb-18 16:30N 52°06' E 004°16'0 0.0
2018-Feb-18 16:00N 52°06' E 004°16'0 0.0
2018-Feb-18 15:30N 52°06' E 004°16'0 0.0
2018-Feb-18 15:00N 52°06' E 004°16'0 0.0
2018-Feb-18 14:30N 52°06' E 004°16'0 0.0
2018-Feb-18 14:00N 52°06' E 004°16'0 0.0
2018-Feb-18 13:30N 52°06' E 004°16'0 0.0
2018-Feb-18 13:00N 52°06' E 004°16'0 0.0
2018-Feb-18 12:27N 52°06' E 004°16'0 0.0
2018-Feb-18 12:00N 52°06' E 004°16'0 0.0
2018-Feb-18 11:30N 52°06' E 004°16'0 0.0
2018-Feb-18 11:00N 52°06' E 004°16'0 0.0
2018-Feb-18 10:30N 52°06' E 004°16'0 0.0
2018-Feb-18 10:00N 52°06' E 004°16'0 0.0
2018-Feb-18 09:30N 52°06' E 004°16'0 0.0
2018-Feb-18 09:00N 52°06' E 004°16'0 0.0
2018-Feb-18 08:30N 52°06' E 004°16'0 0.0
2018-Feb-18 08:00N 52°06' E 004°16'0 0.0
2018-Feb-18 07:30N 52°06' E 004°16'0 0.0
2018-Feb-18 07:00N 52°06' E 004°16'0 0.0
2018-Feb-18 06:27N 52°06' E 004°16'0 0.0
2018-Feb-18 06:00N 52°06' E 004°16'0 0.0
2018-Feb-18 05:24N 52°06' E 004°16'0 0.0
2018-Feb-18 05:00N 52°06' E 004°16'0 0.0
2018-Feb-18 04:30N 52°06' E 004°16'0 0.0
2018-Feb-18 04:00N 52°06' E 004°16'0 0.0
2018-Feb-18 03:30N 52°06' E 004°16'0 0.0
2018-Feb-18 03:00N 52°06' E 004°16'0 0.0
2018-Feb-18 02:30N 52°06' E 004°16'0 0.0
2018-Feb-18 02:00N 52°06' E 004°16'0 0.0
2018-Feb-18 01:30N 52°06' E 004°16'0 0.0
2018-Feb-18 01:00N 52°06' E 004°16'0 0.0
2018-Feb-18 00:30N 52°06' E 004°16'0 0.0
2018-Feb-18 00:00N 52°06' E 004°16'0 0.0
2018-Feb-17 23:30N 52°06' E 004°16'0 0.0
2018-Feb-17 23:00N 52°06' E 004°16'0 0.0
2018-Feb-17 22:30N 52°06' E 004°16'0 0.0
2018-Feb-17 22:00N 52°06' E 004°16'0 0.0
2018-Feb-17 21:30N 52°06' E 004°16'0 0.0
2018-Feb-17 21:00N 52°06' E 004°16'0 0.0
2018-Feb-17 20:30N 52°06' E 004°16'0 0.0
2018-Feb-17 20:00N 52°06' E 004°16'0 0.0
2018-Feb-17 19:30N 52°06' E 004°16'0 0.0
2018-Feb-17 19:00N 52°06' E 004°16'0 0.0
2018-Feb-17 18:30N 52°06' E 004°16'0 0.0
2018-Feb-17 18:00N 52°06' E 004°16'0 0.0
2018-Feb-17 17:30N 52°06' E 004°16'0 0.0
2018-Feb-17 17:00N 52°06' E 004°16'0 0.0
2018-Feb-17 16:30N 52°06' E 004°16'0 0.0
2018-Feb-17 16:00N 52°06' E 004°16'0 0.0
2018-Feb-17 15:30N 52°06' E 004°16'0 0.0
2018-Feb-17 15:00N 52°06' E 004°16'0 0.0
2018-Feb-17 14:30N 52°06' E 004°16'0 0.0
2018-Feb-17 14:00N 52°06' E 004°16'0 0.0
2018-Feb-17 13:30N 52°06' E 004°16'0 0.0
2018-Feb-17 13:00N 52°06' E 004°16'0 0.0
2018-Feb-17 12:30N 52°06' E 004°16'0 0.0
2018-Feb-17 12:00N 52°06' E 004°16'0 0.0
2018-Feb-17 11:30N 52°06' E 004°16'0 0.0
2018-Feb-17 10:57N 52°06' E 004°16'0 0.0
2018-Feb-17 10:30N 52°06' E 004°16'0 0.0
2018-Feb-17 09:54N 52°06' E 004°16'0 0.0
2018-Feb-17 09:30N 52°06' E 004°16'0 0.0
2018-Feb-17 09:00N 52°06' E 004°16'0 0.0
2018-Feb-17 08:30N 52°06' E 004°16'0 0.0
2018-Feb-17 08:00N 52°06' E 004°16'0 0.0
2018-Feb-17 07:30N 52°06' E 004°16'0 0.0
2018-Feb-17 07:00N 52°06' E 004°16'0 0.0
2018-Feb-17 06:30N 52°06' E 004°16'0 0.0
2018-Feb-17 05:57N 52°06' E 004°16'0 0.0
2018-Feb-17 05:30N 52°06' E 004°16'0 0.0
2018-Feb-17 05:00N 52°06' E 004°16'0 0.0
2018-Feb-17 04:30N 52°06' E 004°16'0 0.0
2018-Feb-17 04:00N 52°06' E 004°16'0 0.0
2018-Feb-17 03:27N 52°06' E 004°16'0 0.0
2018-Feb-17 03:00N 52°06' E 004°16'0 0.0
2018-Feb-17 02:30N 52°06' E 004°16'0 0.0
2018-Feb-17 02:00N 52°06' E 004°16'0 0.0
2018-Feb-17 01:30N 52°06' E 004°16'0 0.0
2018-Feb-17 01:00N 52°06' E 004°16'0 0.0
2018-Feb-17 00:27N 52°06' E 004°16'0 0.0
2018-Feb-17 00:00N 52°06' E 004°16'0 0.0
2018-Feb-16 23:30N 52°06' E 004°16'0 0.0
2018-Feb-16 23:00N 52°06' E 004°16'0 0.0
2018-Feb-16 22:30N 52°06' E 004°16'0 0.0
2018-Feb-16 22:00N 52°06' E 004°16'0 0.0
2018-Feb-16 21:30N 52°06' E 004°16'0 0.0
2018-Feb-16 21:00N 52°06' E 004°16'0 0.0
2018-Feb-16 20:27N 52°06' E 004°16'0 0.0
2018-Feb-16 20:00N 52°06' E 004°16'0 0.0
2018-Feb-16 19:30N 52°06' E 004°16'0 0.0
2018-Feb-16 19:00N 52°06' E 004°16'0 0.0
2018-Feb-16 18:30N 52°06' E 004°16'0 0.0
2018-Feb-16 18:00N 52°06' E 004°16'0 0.0
2018-Feb-16 17:30N 52°06' E 004°16'0 0.0
2018-Feb-16 17:00N 52°06' E 004°16'0 0.0
2018-Feb-16 16:30N 52°06' E 004°16'0 0.0
2018-Feb-16 16:00N 52°06' E 004°16'0 0.0
2018-Feb-16 15:30N 52°06' E 004°16'0 0.0
2018-Feb-16 15:00N 52°06' E 004°16'0 0.0
2018-Feb-16 14:30N 52°06' E 004°16'0 0.0
2018-Feb-16 14:00N 52°06' E 004°16'0 0.0
2018-Feb-16 13:30N 52°06' E 004°16'0 0.0
2018-Feb-16 13:00N 52°06' E 004°16'0 0.0
2018-Feb-16 12:30N 52°06' E 004°16'0 0.0
2018-Feb-16 12:00N 52°06' E 004°16'0 0.0
2018-Feb-16 11:27N 52°06' E 004°16'0 0.0
2018-Feb-16 11:00N 52°06' E 004°16'0 0.0
2018-Feb-16 10:30N 52°06' E 004°16'0 0.0
2018-Feb-16 10:00N 52°06' E 004°16'0 0.0
2018-Feb-16 09:30N 52°06' E 004°16'0 0.0
2018-Feb-16 09:00N 52°06' E 004°16'0 0.0
2018-Feb-16 08:30N 52°06' E 004°16'0 0.0
2018-Feb-16 08:00N 52°06' E 004°16'0 0.0
2018-Feb-16 07:30N 52°06' E 004°16'0 0.0
2018-Feb-16 07:00N 52°06' E 004°16'0 0.0
2018-Feb-16 06:30N 52°06' E 004°16'0 0.0
2018-Feb-16 06:00N 52°06' E 004°16'0 0.0
2018-Feb-16 05:30N 52°06' E 004°16'0 0.0
2018-Feb-16 05:00N 52°06' E 004°16'0 0.0
2018-Feb-16 04:30N 52°06' E 004°16'0 0.0
2018-Feb-16 04:00N 52°06' E 004°16'0 0.0
2018-Feb-16 03:30N 52°06' E 004°16'0 0.0
2018-Feb-16 03:00N 52°06' E 004°16'0 0.0
2018-Feb-16 02:30N 52°06' E 004°16'0 0.0
2018-Feb-16 02:00N 52°06' E 004°16'0 0.0
2018-Feb-16 01:30N 52°06' E 004°16'0 0.0
2018-Feb-16 01:00N 52°06' E 004°16'0 0.0
2018-Feb-16 00:30N 52°06' E 004°16'0 0.0
2018-Feb-16 00:00N 52°06' E 004°16'0 0.0
2018-Feb-15 23:30N 52°06' E 004°16'0 0.0
2018-Feb-15 23:00N 52°06' E 004°16'0 0.0
2018-Feb-15 22:30N 52°06' E 004°16'0 0.0
2018-Feb-15 22:00N 52°06' E 004°16'0 0.0
2018-Feb-15 21:30N 52°06' E 004°16'0 0.0
2018-Feb-15 21:00N 52°06' E 004°16'0 0.0
2018-Feb-15 20:30N 52°06' E 004°16'0 0.0
2018-Feb-15 20:00N 52°06' E 004°16'0 0.0
2018-Feb-15 19:30N 52°06' E 004°16'0 0.0
2018-Feb-15 19:00N 52°06' E 004°16'0 0.0
2018-Feb-15 18:30N 52°06' E 004°16'0 0.0
2018-Feb-15 17:57N 52°06' E 004°16'0 0.0
2018-Feb-15 17:30N 52°06' E 004°16'0 0.0
2018-Feb-15 17:00N 52°06' E 004°16'0 0.0
2018-Feb-15 16:30N 52°06' E 004°16'0 0.0
2018-Feb-15 16:00N 52°06' E 004°16'0 0.0
2018-Feb-15 15:30N 52°06' E 004°16'0 0.0
2018-Feb-15 15:00N 52°06' E 004°16'0 0.0
2018-Feb-15 14:27N 52°06' E 004°16'0 0.0
2018-Feb-15 14:00N 52°06' E 004°16'0 0.0
2018-Feb-15 13:30N 52°06' E 004°16'0 0.0
2018-Feb-15 13:00N 52°06' E 004°16'0 0.0
2018-Feb-15 12:30N 52°06' E 004°16'0 0.0
2018-Feb-15 12:00N 52°06' E 004°16'0 0.0
2018-Feb-15 11:30N 52°06' E 004°16'0 0.0
2018-Feb-15 11:00N 52°06' E 004°16'0 0.0
2018-Feb-15 10:30N 52°06' E 004°16'0 0.0
2018-Feb-15 10:00N 52°06' E 004°16'0 0.0
2018-Feb-15 09:30N 52°06' E 004°16'0 0.0
2018-Feb-15 09:00N 52°06' E 004°16'0 0.0
2018-Feb-15 08:30N 52°06' E 004°16'0 0.0
2018-Feb-15 08:00N 52°06' E 004°16'0 0.0
2018-Feb-15 07:30N 52°06' E 004°16'0 0.0
2018-Feb-15 07:00N 52°06' E 004°16'0 0.0
2018-Feb-15 06:30N 52°06' E 004°16'0 0.0
2018-Feb-15 06:00N 52°06' E 004°16'0 0.0
2018-Feb-15 05:30N 52°06' E 004°16'0 0.0
2018-Feb-15 05:00N 52°06' E 004°16'0 0.0
2018-Feb-15 04:30N 52°06' E 004°16'0 0.0
2018-Feb-15 04:00N 52°06' E 004°16'0 0.0
2018-Feb-15 03:30N 52°06' E 004°16'0 0.0
2018-Feb-15 03:00N 52°06' E 004°16'0 0.0
2018-Feb-15 02:30N 52°06' E 004°16'0 0.0
2018-Feb-15 02:00N 52°06' E 004°16'0 0.0
2018-Feb-15 01:30N 52°06' E 004°16'0 0.0
2018-Feb-15 01:00N 52°06' E 004°16'0 0.0
2018-Feb-15 00:30N 52°06' E 004°16'0 0.0
2018-Feb-15 00:00N 52°06' E 004°16'0 0.0
2018-Feb-14 23:30N 52°06' E 004°16'0 0.0
2018-Feb-14 23:00N 52°06' E 004°16'0 0.0
2018-Feb-14 22:30N 52°06' E 004°16'0 0.0
2018-Feb-14 22:00N 52°06' E 004°16'0 0.0
2018-Feb-14 21:30N 52°06' E 004°16'0 0.0
2018-Feb-14 21:00N 52°06' E 004°16'0 0.0
2018-Feb-14 20:30N 52°06' E 004°16'0 0.0
2018-Feb-14 20:00N 52°06' E 004°16'0 0.0
2018-Feb-14 19:30N 52°06' E 004°16'0 0.0
2018-Feb-14 19:00N 52°06' E 004°16'0 0.0
2018-Feb-14 18:30N 52°06' E 004°16'0 0.0
2018-Feb-14 18:00N 52°06' E 004°16'0 0.0
2018-Feb-14 17:30N 52°06' E 004°16'0 0.0
2018-Feb-14 17:00N 52°06' E 004°16'0 0.0
2018-Feb-14 16:30N 52°06' E 004°16'0 0.0
2018-Feb-14 16:00N 52°06' E 004°16'0 0.0
2018-Feb-14 15:30N 52°06' E 004°16'2 3.8
2018-Feb-14 15:01N 52°08' E 004°15'2 4.4
2018-Feb-14 14:30N 52°10' E 004°16'3 6.9
2018-Feb-14 14:01N 52°13' E 004°19'3 5.7
2018-Feb-14 13:31N 52°15' E 004°22'2 3.2
2018-Feb-14 13:01N 52°16' E 004°24'3 6.3
2018-Feb-14 12:31N 52°17' E 004°20'1 2.4
2018-Feb-14 12:01N 52°18' E 004°18'3 6.4
2018-Feb-14 11:31N 52°19' E 004°14'2 4.3
2018-Feb-14 11:01N 52°20' E 004°10'3 5.7
2018-Feb-14 10:31N 52°22' E 004°06'4 7.3
2018-Feb-14 10:01N 52°23' E 004°01'4 8.3
2018-Feb-14 09:30N 52°25' E 003°54'52 3.5
2018-Feb-13 18:40N 51°53' E 002°48'2 9.1
2018-Feb-13 18:30N 51°51' E 002°49'5 9.2
2018-Feb-13 17:59N 51°48' E 002°55'5 9.5
2018-Feb-13 17:30N 51°45' E 003°01'5 9.9
2018-Feb-13 17:00N 51°42' E 003°07'4 8.8
2018-Feb-13 16:29N 51°39' E 003°13'4 7.5
2018-Feb-13 15:58N 51°38' E 003°18'510.0
2018-Feb-13 15:30N 51°35' E 003°24'  
Track history (hours):
 
Tides and Currents Weather Stations Pressure Air Temp Water Temp Dewpoint Dewpoint Depression Visibility Wind Speed Wind Dir Waves Ship Positions

Oceanographic research ship Zirfaea (Netherlands)

Detailed information on ship capabilities available from University of Delaware's Ocean Information Center.

Last reported at 2018-Feb-23 13:59 UTC. Time now 2018-Feb-23 14:15 UTC.
Position N 52°06' E 004°16'.

Length 63 m; draft 3.9 m.

Type: Law enforcement. MMSI: 246096000.

Date/timePositionNaut miles runAvg speedWind from/ knotsBaromVisibWave heightAir tempDewpointWater temp
2018-Feb-23 13:59N 52°06' E 004°16'0 0.0
2018-Feb-23 13:29N 52°06' E 004°16'0 0.0
2018-Feb-23 12:59N 52°06' E 004°16'0 0.0
2018-Feb-23 12:29N 52°06' E 004°16'0 0.0
2018-Feb-23 11:56N 52°06' E 004°16'0 0.0
2018-Feb-23 11:29N 52°06' E 004°16'0 0.0
2018-Feb-23 10:59N 52°06' E 004°16'0 0.0
2018-Feb-23 10:29N 52°06' E 004°16'0 0.0
2018-Feb-23 09:59N 52°06' E 004°16'0 0.0
2018-Feb-23 09:29N 52°06' E 004°16'0 0.0
2018-Feb-23 08:59N 52°06' E 004°16'0 0.0
2018-Feb-23 08:29N 52°06' E 004°16'0 0.0
2018-Feb-23 07:59N 52°06' E 004°16'0 0.0
2018-Feb-23 07:29N 52°06' E 004°16'0 0.0
2018-Feb-23 06:59N 52°06' E 004°16'0 0.0
2018-Feb-23 06:29N 52°06' E 004°16'0 0.0
2018-Feb-23 05:59N 52°06' E 004°16'0 0.0
2018-Feb-23 05:29N 52°06' E 004°16'0 0.0
2018-Feb-23 04:59N 52°06' E 004°16'0 0.0
2018-Feb-23 04:29N 52°06' E 004°16'0 0.0
2018-Feb-23 03:59N 52°06' E 004°16'0 0.0
2018-Feb-23 03:26N 52°06' E 004°16'0 0.0
2018-Feb-23 02:59N 52°06' E 004°16'0 0.0
2018-Feb-23 02:29N 52°06' E 004°16'0 0.0
2018-Feb-23 01:59N 52°06' E 004°16'0 0.0
2018-Feb-23 01:29N 52°06' E 004°16'0 0.0
2018-Feb-23 00:59N 52°06' E 004°16'0 0.0
2018-Feb-23 00:29N 52°06' E 004°16'0 0.0
2018-Feb-22 23:59N 52°06' E 004°16'0 0.0
2018-Feb-22 23:29N 52°06' E 004°16'0 0.0
2018-Feb-22 22:59N 52°06' E 004°16'0 0.0
2018-Feb-22 22:29N 52°06' E 004°16'0 0.0
2018-Feb-22 21:59N 52°06' E 004°16'0 0.0
2018-Feb-22 21:29N 52°06' E 004°16'0 0.0
2018-Feb-22 20:56N 52°06' E 004°16'0 0.0
2018-Feb-22 20:26N 52°06' E 004°16'0 0.0
2018-Feb-22 19:59N 52°06' E 004°16'0 0.0
2018-Feb-22 19:29N 52°06' E 004°16'0 0.0
2018-Feb-22 18:59N 52°06' E 004°16'0 0.0
2018-Feb-22 18:29N 52°06' E 004°16'1 2.9
2018-Feb-22 18:00N 52°07' E 004°15'4 8.7
2018-Feb-22 17:30N 52°11' E 004°16'5 9.4
2018-Feb-22 17:00N 52°16' E 004°17'510.1
2018-Feb-22 16:30N 52°21' E 004°19'2 4.7
2018-Feb-22 16:01N 52°23' E 004°20'0 0.5
2018-Feb-22 15:31N 52°23' E 004°20'2 4.3
2018-Feb-22 15:00N 52°25' E 004°22'611.4
2018-Feb-22 14:30N 52°30' E 004°26'611.4
2018-Feb-22 14:00N 52°36' E 004°28'611.4
2018-Feb-22 13:30N 52°41' E 004°29'611.3
2018-Feb-22 13:00N 52°47' E 004°30'611.1
2018-Feb-22 12:30N 52°52' E 004°31'510.7
2018-Feb-22 12:00N 52°58' E 004°32'5 9.6
2018-Feb-22 11:28N 53°03' E 004°34'13 4.9
2018-Feb-22 08:55N 53°14' E 004°42'0 0.2
2018-Feb-22 08:02N 53°14' E 004°42'0 0.3
2018-Feb-22 06:49N 53°14' E 004°42'3 5.4
2018-Feb-22 06:11N 53°17' E 004°46'7 6.1
2018-Feb-22 05:07N 53°22' E 004°53'1 5.3
2018-Feb-22 04:58N 53°22' E 004°54'4 5.3
2018-Feb-22 04:09N 53°25' E 004°60'1 6.2
2018-Feb-22 03:58N 53°26' E 005°01'1 0.6
2018-Feb-22 02:25N 53°26' E 005°03'4 5.8
2018-Feb-22 01:42N 53°27' E 005°09'48 3.5
2018-Feb-21 12:01N 53°37' E 006°28'0 8.8
2018-Feb-21 12:00N 53°37' E 006°29'35 2.6
2018-Feb-20 22:46N 53°31' E 005°31'1 2.2
2018-Feb-20 22:29N 53°31' E 005°30'2 4.5
2018-Feb-20 21:59N 53°30' E 005°27'39 1.6
2018-Feb-19 21:22N 53°29' E 004°22'3 8.3
2018-Feb-19 21:00N 53°26' E 004°22'4 8.4
2018-Feb-19 20:30N 53°21' E 004°22'4 8.6
2018-Feb-19 20:00N 53°17' E 004°22'4 7.4
2018-Feb-19 19:28N 53°14' E 004°25'3 7.2
2018-Feb-19 19:00N 53°12' E 004°30'5 9.8
2018-Feb-19 18:31N 53°07' E 004°31'510.5
2018-Feb-19 18:00N 53°02' E 004°32'611.8
2018-Feb-19 17:30N 52°56' E 004°33'612.0
2018-Feb-19 17:00N 52°51' E 004°37'2 4.2
2018-Feb-19 16:29N 52°49' E 004°36'511.4
2018-Feb-19 16:00N 52°43' E 004°33'610.9
2018-Feb-19 15:30N 52°38' E 004°30'5 9.8
2018-Feb-19 15:00N 52°34' E 004°27'5 9.7
2018-Feb-19 14:30N 52°30' E 004°21'3 6.6
2018-Feb-19 14:00N 52°29' E 004°16'4 7.4
2018-Feb-19 13:30N 52°26' E 004°15'5 9.1
2018-Feb-19 13:00N 52°21' E 004°14'5 9.1
2018-Feb-19 12:30N 52°17' E 004°12'4 8.9
2018-Feb-19 12:00N 52°12' E 004°11'4 7.8
2018-Feb-19 11:30N 52°08' E 004°12'0 0.3
2018-Feb-19 11:01N 52°08' E 004°12'3 6.4
2018-Feb-19 10:30N 52°06' E 004°16'0 0.1
2018-Feb-19 10:00N 52°06' E 004°16'0 0.0
2018-Feb-19 09:30N 52°06' E 004°16'0 0.0
2018-Feb-19 09:00N 52°06' E 004°16'0 0.0
2018-Feb-19 08:30N 52°06' E 004°16'0 0.0
2018-Feb-19 08:00N 52°06' E 004°16'0 0.0
2018-Feb-19 07:30N 52°06' E 004°16'0 0.0
2018-Feb-19 07:00N 52°06' E 004°16'0 0.0
2018-Feb-19 06:30N 52°06' E 004°16'0 0.0
2018-Feb-19 06:00N 52°06' E 004°16'0 0.0
2018-Feb-19 05:30N 52°06' E 004°16'0 0.0
2018-Feb-19 05:00N 52°06' E 004°16'0 0.0
2018-Feb-19 04:30N 52°06' E 004°16'0 0.0
2018-Feb-19 04:00N 52°06' E 004°16'0 0.0
2018-Feb-19 03:27N 52°06' E 004°16'0 0.0
2018-Feb-19 03:00N 52°06' E 004°16'0 0.0
2018-Feb-19 02:30N 52°06' E 004°16'0 0.0
2018-Feb-19 02:00N 52°06' E 004°16'0 0.0
2018-Feb-19 01:30N 52°06' E 004°16'0 0.0
2018-Feb-19 01:00N 52°06' E 004°16'0 0.0
2018-Feb-19 00:30N 52°06' E 004°16'0 0.0
2018-Feb-19 00:00N 52°06' E 004°16'0 0.0
2018-Feb-18 23:30N 52°06' E 004°16'0 0.0
2018-Feb-18 23:00N 52°06' E 004°16'0 0.0
2018-Feb-18 22:30N 52°06' E 004°16'0 0.0
2018-Feb-18 22:00N 52°06' E 004°16'0 0.0
2018-Feb-18 21:30N 52°06' E 004°16'0 0.0
2018-Feb-18 21:00N 52°06' E 004°16'0 0.0
2018-Feb-18 20:30N 52°06' E 004°16'0 0.0
2018-Feb-18 20:00N 52°06' E 004°16'0 0.0
2018-Feb-18 19:30N 52°06' E 004°16'0 0.0
2018-Feb-18 19:00N 52°06' E 004°16'0 0.0
2018-Feb-18 18:30N 52°06' E 004°16'0 0.0
2018-Feb-18 18:00N 52°06' E 004°16'0 0.0
2018-Feb-18 17:30N 52°06' E 004°16'0 0.0
2018-Feb-18 17:00N 52°06' E 004°16'0 0.0
2018-Feb-18 16:30N 52°06' E 004°16'0 0.0
2018-Feb-18 16:00N 52°06' E 004°16'0 0.0
2018-Feb-18 15:30N 52°06' E 004°16'0 0.0
2018-Feb-18 15:00N 52°06' E 004°16'0 0.0
2018-Feb-18 14:30N 52°06' E 004°16'0 0.0
2018-Feb-18 14:00N 52°06' E 004°16'0 0.0
2018-Feb-18 13:30N 52°06' E 004°16'0 0.0
2018-Feb-18 13:00N 52°06' E 004°16'0 0.0
2018-Feb-18 12:27N 52°06' E 004°16'0 0.0
2018-Feb-18 12:00N 52°06' E 004°16'0 0.0
2018-Feb-18 11:30N 52°06' E 004°16'0 0.0
2018-Feb-18 11:00N 52°06' E 004°16'0 0.0
2018-Feb-18 10:30N 52°06' E 004°16'0 0.0
2018-Feb-18 10:00N 52°06' E 004°16'0 0.0
2018-Feb-18 09:30N 52°06' E 004°16'0 0.0
2018-Feb-18 09:00N 52°06' E 004°16'0 0.0
2018-Feb-18 08:30N 52°06' E 004°16'0 0.0
2018-Feb-18 08:00N 52°06' E 004°16'0 0.0
2018-Feb-18 07:30N 52°06' E 004°16'0 0.0
2018-Feb-18 07:00N 52°06' E 004°16'0 0.0
2018-Feb-18 06:27N 52°06' E 004°16'0 0.0
2018-Feb-18 06:00N 52°06' E 004°16'0 0.0
2018-Feb-18 05:24N 52°06' E 004°16'0 0.0
2018-Feb-18 05:00N 52°06' E 004°16'0 0.0
2018-Feb-18 04:30N 52°06' E 004°16'0 0.0
2018-Feb-18 04:00N 52°06' E 004°16'0 0.0
2018-Feb-18 03:30N 52°06' E 004°16'0 0.0
2018-Feb-18 03:00N 52°06' E 004°16'0 0.0
2018-Feb-18 02:30N 52°06' E 004°16'0 0.0
2018-Feb-18 02:00N 52°06' E 004°16'0 0.0
2018-Feb-18 01:30N 52°06' E 004°16'0 0.0
2018-Feb-18 01:00N 52°06' E 004°16'0 0.0
2018-Feb-18 00:30N 52°06' E 004°16'0 0.0
2018-Feb-18 00:00N 52°06' E 004°16'0 0.0
2018-Feb-17 23:30N 52°06' E 004°16'0 0.0
2018-Feb-17 23:00N 52°06' E 004°16'0 0.0
2018-Feb-17 22:30N 52°06' E 004°16'0 0.0
2018-Feb-17 22:00N 52°06' E 004°16'0 0.0
2018-Feb-17 21:30N 52°06' E 004°16'0 0.0
2018-Feb-17 21:00N 52°06' E 004°16'0 0.0
2018-Feb-17 20:30N 52°06' E 004°16'0 0.0
2018-Feb-17 20:00N 52°06' E 004°16'0 0.0
2018-Feb-17 19:30N 52°06' E 004°16'0 0.0
2018-Feb-17 19:00N 52°06' E 004°16'0 0.0
2018-Feb-17 18:30N 52°06' E 004°16'0 0.0
2018-Feb-17 18:00N 52°06' E 004°16'0 0.0
2018-Feb-17 17:30N 52°06' E 004°16'0 0.0
2018-Feb-17 17:00N 52°06' E 004°16'0 0.0
2018-Feb-17 16:30N 52°06' E 004°16'0 0.0
2018-Feb-17 16:00N 52°06' E 004°16'0 0.0
2018-Feb-17 15:30N 52°06' E 004°16'0 0.0
2018-Feb-17 15:00N 52°06' E 004°16'0 0.0
2018-Feb-17 14:30N 52°06' E 004°16'0 0.0
2018-Feb-17 14:00N 52°06' E 004°16'0 0.0
2018-Feb-17 13:30N 52°06' E 004°16'0 0.0
2018-Feb-17 13:00N 52°06' E 004°16'0 0.0
2018-Feb-17 12:30N 52°06' E 004°16'0 0.0
2018-Feb-17 12:00N 52°06' E 004°16'0 0.0
2018-Feb-17 11:30N 52°06' E 004°16'0 0.0
2018-Feb-17 10:57N 52°06' E 004°16'0 0.0
2018-Feb-17 10:30N 52°06' E 004°16'0 0.0
2018-Feb-17 09:54N 52°06' E 004°16'0 0.0
2018-Feb-17 09:30N 52°06' E 004°16'0 0.0
2018-Feb-17 09:00N 52°06' E 004°16'0 0.0
2018-Feb-17 08:30N 52°06' E 004°16'0 0.0
2018-Feb-17 08:00N 52°06' E 004°16'0 0.0
2018-Feb-17 07:30N 52°06' E 004°16'0 0.0
2018-Feb-17 07:00N 52°06' E 004°16'0 0.0
2018-Feb-17 06:30N 52°06' E 004°16'0 0.0
2018-Feb-17 05:57N 52°06' E 004°16'0 0.0
2018-Feb-17 05:30N 52°06' E 004°16'0 0.0
2018-Feb-17 05:00N 52°06' E 004°16'0 0.0
2018-Feb-17 04:30N 52°06' E 004°16'0 0.0
2018-Feb-17 04:00N 52°06' E 004°16'0 0.0
2018-Feb-17 03:27N 52°06' E 004°16'0 0.0
2018-Feb-17 03:00N 52°06' E 004°16'0 0.0
2018-Feb-17 02:30N 52°06' E 004°16'0 0.0
2018-Feb-17 02:00N 52°06' E 004°16'0 0.0
2018-Feb-17 01:30N 52°06' E 004°16'0 0.0
2018-Feb-17 01:00N 52°06' E 004°16'0 0.0
2018-Feb-17 00:27N 52°06' E 004°16'0 0.0
2018-Feb-17 00:00N 52°06' E 004°16'0 0.0
2018-Feb-16 23:30N 52°06' E 004°16'0 0.0
2018-Feb-16 23:00N 52°06' E 004°16'0 0.0
2018-Feb-16 22:30N 52°06' E 004°16'0 0.0
2018-Feb-16 22:00N 52°06' E 004°16'0 0.0
2018-Feb-16 21:30N 52°06' E 004°16'0 0.0
2018-Feb-16 21:00N 52°06' E 004°16'0 0.0
2018-Feb-16 20:27N 52°06' E 004°16'0 0.0
2018-Feb-16 20:00N 52°06' E 004°16'0 0.0
2018-Feb-16 19:30N 52°06' E 004°16'0 0.0
2018-Feb-16 19:00N 52°06' E 004°16'0 0.0
2018-Feb-16 18:30N 52°06' E 004°16'0 0.0
2018-Feb-16 18:00N 52°06' E 004°16'0 0.0
2018-Feb-16 17:30N 52°06' E 004°16'0 0.0
2018-Feb-16 17:00N 52°06' E 004°16'0 0.0
2018-Feb-16 16:30N 52°06' E 004°16'0 0.0
2018-Feb-16 16:00N 52°06' E 004°16'0 0.0
2018-Feb-16 15:30N 52°06' E 004°16'0 0.0
2018-Feb-16 15:00N 52°06' E 004°16'0 0.0
2018-Feb-16 14:30N 52°06' E 004°16'0 0.0
2018-Feb-16 14:00N 52°06' E 004°16'0 0.0
2018-Feb-16 13:30N 52°06' E 004°16'0 0.0
2018-Feb-16 13:00N 52°06' E 004°16'0 0.0
2018-Feb-16 12:30N 52°06' E 004°16'0 0.0
2018-Feb-16 12:00N 52°06' E 004°16'0 0.0
2018-Feb-16 11:27N 52°06' E 004°16'0 0.0
2018-Feb-16 11:00N 52°06' E 004°16'0 0.0
2018-Feb-16 10:30N 52°06' E 004°16'0 0.0
2018-Feb-16 10:00N 52°06' E 004°16'0 0.0
2018-Feb-16 09:30N 52°06' E 004°16'0 0.0
2018-Feb-16 09:00N 52°06' E 004°16'0 0.0
2018-Feb-16 08:30N 52°06' E 004°16'0 0.0
2018-Feb-16 08:00N 52°06' E 004°16'0 0.0
2018-Feb-16 07:30N 52°06' E 004°16'0 0.0
2018-Feb-16 07:00N 52°06' E 004°16'0 0.0
2018-Feb-16 06:30N 52°06' E 004°16'0 0.0
2018-Feb-16 06:00N 52°06' E 004°16'0 0.0
2018-Feb-16 05:30N 52°06' E 004°16'0 0.0
2018-Feb-16 05:00N 52°06' E 004°16'0 0.0
2018-Feb-16 04:30N 52°06' E 004°16'0 0.0
2018-Feb-16 04:00N 52°06' E 004°16'0 0.0
2018-Feb-16 03:30N 52°06' E 004°16'0 0.0
2018-Feb-16 03:00N 52°06' E 004°16'0 0.0
2018-Feb-16 02:30N 52°06' E 004°16'0 0.0
2018-Feb-16 02:00N 52°06' E 004°16'0 0.0
2018-Feb-16 01:30N 52°06' E 004°16'0 0.0
2018-Feb-16 01:00N 52°06' E 004°16'0 0.0
2018-Feb-16 00:30N 52°06' E 004°16'0 0.0
2018-Feb-16 00:00N 52°06' E 004°16'0 0.0
2018-Feb-15 23:30N 52°06' E 004°16'0 0.0
2018-Feb-15 23:00N 52°06' E 004°16'0 0.0
2018-Feb-15 22:30N 52°06' E 004°16'0 0.0
2018-Feb-15 22:00N 52°06' E 004°16'0 0.0
2018-Feb-15 21:30N 52°06' E 004°16'0 0.0
2018-Feb-15 21:00N 52°06' E 004°16'0 0.0
2018-Feb-15 20:30N 52°06' E 004°16'0 0.0
2018-Feb-15 20:00N 52°06' E 004°16'0 0.0
2018-Feb-15 19:30N 52°06' E 004°16'0 0.0
2018-Feb-15 19:00N 52°06' E 004°16'0 0.0
2018-Feb-15 18:30N 52°06' E 004°16'0 0.0
2018-Feb-15 17:57N 52°06' E 004°16'0 0.0
2018-Feb-15 17:30N 52°06' E 004°16'0 0.0
2018-Feb-15 17:00N 52°06' E 004°16'0 0.0
2018-Feb-15 16:30N 52°06' E 004°16'0 0.0
2018-Feb-15 16:00N 52°06' E 004°16'0 0.0
2018-Feb-15 15:30N 52°06' E 004°16'0 0.0
2018-Feb-15 15:00N 52°06' E 004°16'0 0.0
2018-Feb-15 14:27N 52°06' E 004°16'0 0.0
2018-Feb-15 14:00N 52°06' E 004°16'0 0.0
2018-Feb-15 13:30N 52°06' E 004°16'0 0.0
2018-Feb-15 13:00N 52°06' E 004°16'0 0.0
2018-Feb-15 12:30N 52°06' E 004°16'0 0.0
2018-Feb-15 12:00N 52°06' E 004°16'0 0.0
2018-Feb-15 11:30N 52°06' E 004°16'0 0.0
2018-Feb-15 11:00N 52°06' E 004°16'0 0.0
2018-Feb-15 10:30N 52°06' E 004°16'0 0.0
2018-Feb-15 10:00N 52°06' E 004°16'0 0.0
2018-Feb-15 09:30N 52°06' E 004°16'0 0.0
2018-Feb-15 09:00N 52°06' E 004°16'0 0.0
2018-Feb-15 08:30N 52°06' E 004°16'0 0.0
2018-Feb-15 08:00N 52°06' E 004°16'0 0.0
2018-Feb-15 07:30N 52°06' E 004°16'0 0.0
2018-Feb-15 07:00N 52°06' E 004°16'0 0.0
2018-Feb-15 06:30N 52°06' E 004°16'0 0.0
2018-Feb-15 06:00N 52°06' E 004°16'0 0.0
2018-Feb-15 05:30N 52°06' E 004°16'0 0.0
2018-Feb-15 05:00N 52°06' E 004°16'0 0.0
2018-Feb-15 04:30N 52°06' E 004°16'0 0.0
2018-Feb-15 04:00N 52°06' E 004°16'0 0.0
2018-Feb-15 03:30N 52°06' E 004°16'0 0.0
2018-Feb-15 03:00N 52°06' E 004°16'0 0.0
2018-Feb-15 02:30N 52°06' E 004°16'0 0.0
2018-Feb-15 02:00N 52°06' E 004°16'0 0.0
2018-Feb-15 01:30N 52°06' E 004°16'0 0.0
2018-Feb-15 01:00N 52°06' E 004°16'0 0.0
2018-Feb-15 00:30N 52°06' E 004°16'0 0.0
2018-Feb-15 00:00N 52°06' E 004°16'0 0.0
2018-Feb-14 23:30N 52°06' E 004°16'0 0.0
2018-Feb-14 23:00N 52°06' E 004°16'0 0.0
2018-Feb-14 22:30N 52°06' E 004°16'0 0.0
2018-Feb-14 22:00N 52°06' E 004°16'0 0.0
2018-Feb-14 21:30N 52°06' E 004°16'0 0.0
2018-Feb-14 21:00N 52°06' E 004°16'0 0.0
2018-Feb-14 20:30N 52°06' E 004°16'0 0.0
2018-Feb-14 20:00N 52°06' E 004°16'0 0.0
2018-Feb-14 19:30N 52°06' E 004°16'0 0.0
2018-Feb-14 19:00N 52°06' E 004°16'0 0.0
2018-Feb-14 18:30N 52°06' E 004°16'0 0.0
2018-Feb-14 18:00N 52°06' E 004°16'0 0.0
2018-Feb-14 17:30N 52°06' E 004°16'0 0.0
2018-Feb-14 17:00N 52°06' E 004°16'0 0.0
2018-Feb-14 16:30N 52°06' E 004°16'0 0.0
2018-Feb-14 16:00N 52°06' E 004°16'0 0.0
2018-Feb-14 15:30N 52°06' E 004°16'2 3.8
2018-Feb-14 15:01N 52°08' E 004°15'2 4.4
2018-Feb-14 14:30N 52°10' E 004°16'3 6.9
2018-Feb-14 14:01N 52°13' E 004°19'3 5.7
2018-Feb-14 13:31N 52°15' E 004°22'2 3.2
2018-Feb-14 13:01N 52°16' E 004°24'3 6.3
2018-Feb-14 12:31N 52°17' E 004°20'1 2.4
2018-Feb-14 12:01N 52°18' E 004°18'3 6.4
2018-Feb-14 11:31N 52°19' E 004°14'2 4.3
2018-Feb-14 11:01N 52°20' E 004°10'3 5.7
2018-Feb-14 10:31N 52°22' E 004°06'4 7.3
2018-Feb-14 10:01N 52°23' E 004°01'4 8.3
2018-Feb-14 09:30N 52°25' E 003°54'52 3.5
2018-Feb-13 18:40N 51°53' E 002°48'2 9.1
2018-Feb-13 18:30N 51°51' E 002°49'5 9.2
2018-Feb-13 17:59N 51°48' E 002°55'5 9.5
2018-Feb-13 17:30N 51°45' E 003°01'5 9.9
2018-Feb-13 17:00N 51°42' E 003°07'4 8.8
2018-Feb-13 16:29N 51°39' E 003°13'4 7.5
2018-Feb-13 15:58N 51°38' E 003°18'510.0
2018-Feb-13 15:30N 51°35' E 003°24'  

Dump ship's entire track history